createdAt,value
2022-12-06T00:02:35.810Z,1.49
2022-12-06T00:07:37.107Z,1.49
2022-12-06T00:12:38.350Z,1.50
2022-12-06T00:17:42.995Z,1.54
2022-12-06T00:22:44.530Z,1.57
2022-12-06T00:27:45.849Z,1.59
2022-12-06T00:32:47.066Z,1.61
2022-12-06T00:37:48.254Z,1.63
2022-12-06T00:42:49.419Z,1.63
2022-12-06T00:47:50.621Z,1.65
2022-12-06T00:52:51.807Z,1.60
2022-12-06T00:57:52.962Z,1.63
2022-12-06T01:02:54.240Z,1.67
2022-12-06T01:07:55.518Z,1.72
2022-12-06T01:12:56.850Z,1.75
2022-12-06T01:17:58.029Z,1.75
2022-12-06T01:22:59.170Z,1.78
2022-12-06T01:28:00.345Z,1.77
2022-12-06T01:33:01.490Z,1.77
2022-12-06T01:38:06.098Z,1.74
2022-12-06T01:43:07.635Z,1.80
2022-12-06T01:48:08.768Z,1.86
2022-12-06T01:53:09.978Z,1.89
2022-12-06T01:58:11.242Z,1.93
2022-12-06T02:03:12.382Z,1.92
2022-12-06T02:08:13.954Z,1.92
2022-12-06T02:13:15.270Z,1.93
2022-12-06T02:18:16.430Z,1.96
2022-12-06T02:23:17.578Z,1.93
2022-12-06T02:28:18.754Z,1.97
2022-12-06T02:33:20.218Z,1.98
2022-12-06T02:38:21.391Z,1.96
2022-12-06T02:43:22.600Z,2.01
2022-12-06T02:48:23.786Z,2.08
2022-12-06T02:53:25.005Z,2.05
2022-12-06T02:58:26.188Z,2.04
2022-12-06T03:03:27.381Z,1.99
2022-12-06T03:08:28.518Z,2.08
2022-12-06T03:13:29.773Z,2.05
2022-12-06T03:18:31.908Z,2.06
2022-12-06T03:23:33.021Z,2.09
2022-12-06T03:28:34.196Z,2.12
2022-12-06T03:33:35.341Z,2.12
2022-12-06T03:38:36.547Z,2.15
2022-12-06T03:43:37.724Z,2.14
2022-12-06T03:48:38.918Z,2.20
2022-12-06T03:53:40.064Z,2.24
2022-12-06T03:58:41.306Z,2.25
2022-12-06T04:03:42.614Z,2.27
2022-12-06T04:08:43.932Z,2.26
2022-12-06T04:13:45.136Z,2.31
2022-12-06T04:18:46.275Z,2.32
2022-12-06T04:23:47.446Z,2.35
2022-12-06T04:29:07.438Z,2.37
2022-12-06T04:34:27.202Z,2.22
2022-12-06T04:39:28.420Z,2.27
2022-12-06T04:44:29.607Z,2.25
2022-12-06T04:49:30.866Z,2.23
2022-12-06T04:54:32.102Z,2.16
2022-12-06T04:59:33.234Z,2.13
2022-12-06T05:04:34.491Z,2.25
2022-12-06T05:09:35.701Z,2.37
2022-12-06T05:14:36.955Z,2.36
2022-12-06T05:19:38.153Z,2.28
2022-12-06T05:24:39.323Z,2.34
2022-12-06T05:29:40.496Z,2.40
2022-12-06T05:34:41.722Z,2.46
2022-12-06T05:39:42.953Z,2.50
2022-12-06T05:44:44.178Z,2.53
2022-12-06T05:49:45.325Z,2.56
2022-12-06T05:54:46.559Z,2.56
2022-12-06T05:59:47.739Z,2.56
2022-12-06T06:04:48.972Z,2.53
2022-12-06T06:09:50.126Z,2.56
2022-12-06T06:14:51.317Z,2.60
2022-12-06T06:19:52.515Z,2.53
2022-12-06T06:24:53.721Z,2.62
2022-12-06T06:29:54.941Z,2.57
2022-12-06T06:34:56.062Z,2.64
2022-12-06T06:39:57.285Z,2.72
2022-12-06T06:44:58.520Z,2.69
2022-12-06T06:49:59.821Z,2.73
2022-12-06T06:55:01.234Z,2.78
2022-12-06T07:00:02.859Z,2.83
2022-12-06T07:05:04.309Z,2.86
2022-12-06T07:10:05.493Z,2.89
2022-12-06T07:15:06.715Z,2.88
2022-12-06T07:20:07.858Z,2.91
2022-12-06T07:25:09.045Z,2.95
2022-12-06T07:30:13.255Z,2.97
2022-12-06T07:35:18.015Z,2.98
2022-12-06T07:40:26.633Z,2.97
2022-12-06T07:45:36.518Z,2.96
2022-12-06T07:50:37.843Z,2.97
2022-12-06T07:55:39.068Z,3.01
2022-12-06T08:00:41.508Z,3.04
2022-12-06T08:05:42.902Z,3.08
2022-12-06T08:10:44.111Z,3.13
2022-12-06T08:15:45.344Z,3.15
2022-12-06T08:20:46.583Z,3.16
2022-12-06T08:25:47.781Z,3.14
2022-12-06T08:30:49.003Z,3.15
2022-12-06T08:35:50.233Z,3.18
2022-12-06T08:40:51.350Z,3.28
2022-12-06T08:45:52.661Z,3.37
2022-12-06T08:50:53.879Z,3.36
2022-12-06T08:56:01.913Z,3.39
2022-12-06T09:01:03.902Z,3.47
2022-12-06T09:06:05.132Z,3.54
2022-12-06T09:11:06.447Z,3.61
2022-12-06T09:16:07.950Z,3.65
2022-12-06T09:21:09.304Z,3.67
2022-12-06T09:26:10.538Z,3.71
2022-12-06T09:31:11.819Z,3.73
2022-12-06T09:36:13.062Z,3.72
2022-12-06T09:41:15.405Z,3.77
2022-12-06T09:46:16.716Z,3.77
2022-12-06T09:51:17.931Z,3.72
2022-12-06T09:56:21.315Z,3.76
2022-12-06T10:01:22.659Z,3.72
2022-12-06T10:06:23.900Z,3.77
2022-12-06T10:11:25.040Z,3.83
2022-12-06T10:16:26.380Z,3.85
2022-12-06T10:21:29.181Z,3.83
2022-12-06T10:26:30.385Z,3.91
2022-12-06T10:31:31.627Z,3.89
2022-12-06T10:36:33.786Z,3.87
2022-12-06T10:41:36.152Z,3.92
2022-12-06T10:46:56.234Z,3.99
2022-12-06T10:51:57.463Z,4.09
2022-12-06T10:56:58.665Z,4.05
2022-12-06T11:01:59.997Z,4.14
2022-12-06T11:07:01.294Z,4.15
2022-12-06T11:12:02.466Z,4.20
2022-12-06T11:17:03.644Z,4.43
2022-12-06T11:22:04.758Z,4.48
2022-12-06T11:27:08.213Z,4.64
2022-12-06T11:32:09.407Z,4.58
2022-12-06T11:37:10.560Z,4.60
2022-12-06T11:42:11.685Z,4.66
2022-12-06T11:47:12.873Z,4.57
2022-12-06T11:52:14.138Z,4.62
2022-12-06T11:57:20.831Z,4.63
2022-12-06T12:02:23.678Z,4.68
2022-12-06T12:07:25.962Z,4.73
2022-12-06T12:12:50.205Z,4.77
2022-12-06T12:17:51.336Z,4.82
2022-12-06T12:22:52.484Z,4.77
2022-12-06T12:27:53.738Z,4.74
2022-12-06T12:32:54.905Z,4.77
2022-12-06T12:37:56.081Z,4.85
2022-12-06T12:42:57.477Z,4.86
2022-12-06T12:47:58.666Z,4.83
2022-12-06T12:53:00.558Z,4.94
2022-12-06T12:58:01.908Z,4.99
2022-12-06T13:03:03.070Z,5.08
2022-12-06T13:08:04.246Z,5.10
2022-12-06T13:13:05.455Z,5.15
2022-12-06T13:18:06.631Z,5.13
2022-12-06T13:23:08.315Z,5.20
2022-12-06T13:28:09.597Z,5.12
2022-12-06T13:33:10.833Z,5.13
2022-12-06T13:38:11.987Z,5.12
2022-12-06T13:43:13.132Z,5.06
2022-12-06T13:48:14.353Z,5.09
2022-12-06T13:53:15.588Z,5.16
2022-12-06T13:58:16.799Z,5.29
2022-12-06T14:03:18.665Z,5.33
2022-12-06T14:08:19.956Z,5.30
2022-12-06T14:13:21.198Z,5.24
2022-12-06T14:18:22.477Z,5.12
2022-12-06T14:23:23.646Z,5.08
2022-12-06T14:28:24.892Z,5.04
2022-12-06T14:33:26.097Z,5.00
2022-12-06T14:38:27.266Z,5.05
2022-12-06T14:43:28.442Z,5.09
2022-12-06T14:48:49.555Z,5.11
2022-12-06T14:53:50.749Z,5.14
2022-12-06T14:58:51.906Z,5.01
2022-12-06T15:03:53.211Z,4.81
2022-12-06T15:08:55.562Z,4.61
2022-12-06T15:13:56.820Z,4.54
2022-12-06T15:18:58.020Z,4.48
2022-12-06T15:23:59.222Z,4.51
2022-12-06T15:29:00.571Z,4.47
2022-12-06T15:34:01.920Z,4.46
2022-12-06T15:39:03.124Z,4.47
2022-12-06T15:44:04.265Z,4.47
2022-12-06T15:49:05.433Z,4.39
2022-12-06T15:54:07.193Z,4.35
2022-12-06T15:59:08.393Z,4.31
2022-12-06T16:04:09.674Z,4.34
2022-12-06T16:09:10.901Z,4.36
2022-12-06T16:14:12.108Z,4.35
2022-12-06T16:19:13.302Z,4.33
2022-12-06T16:24:15.116Z,4.32
2022-12-06T16:29:16.872Z,4.28
2022-12-06T16:34:18.227Z,4.25
2022-12-06T16:39:19.370Z,4.21
2022-12-06T16:44:20.592Z,4.25
2022-12-06T16:49:45.335Z,4.28
2022-12-06T16:54:43.532Z,4.28
2022-12-06T16:59:44.753Z,4.29
2022-12-06T17:04:45.898Z,4.29
2022-12-06T17:09:47.077Z,4.28
2022-12-06T17:14:48.240Z,4.25
2022-12-06T17:19:49.423Z,4.19
2022-12-06T17:24:50.762Z,4.09
2022-12-06T17:29:51.996Z,4.03
2022-12-06T17:34:53.207Z,4.05
2022-12-06T17:39:54.343Z,4.10
2022-12-06T17:44:55.581Z,4.10
2022-12-06T17:49:56.993Z,4.06
2022-12-06T17:54:58.357Z,4.05
2022-12-06T17:59:59.651Z,4.07
2022-12-06T18:05:01.322Z,4.08
2022-12-06T18:10:02.825Z,4.06
2022-12-06T18:15:04.403Z,4.06
2022-12-06T18:20:05.793Z,4.05
2022-12-06T18:25:06.983Z,4.08
2022-12-06T18:30:08.218Z,4.10
2022-12-06T18:35:09.375Z,4.15
2022-12-06T18:40:10.582Z,4.15
2022-12-06T18:45:11.756Z,4.14
2022-12-06T18:50:12.999Z,4.16
2022-12-06T18:55:14.243Z,4.14
2022-12-06T19:00:15.394Z,4.14
2022-12-06T19:05:32.978Z,4.12
2022-12-06T19:10:38.818Z,4.13
2022-12-06T19:15:40.000Z,4.12
2022-12-06T19:20:42.017Z,4.14
2022-12-06T19:25:43.189Z,4.16
2022-12-06T19:30:44.439Z,4.15
2022-12-06T19:35:45.635Z,4.16
2022-12-06T19:40:46.827Z,4.17
2022-12-06T19:45:47.989Z,4.17
2022-12-06T19:50:49.210Z,4.15
2022-12-06T19:55:50.334Z,4.16
2022-12-06T20:00:51.829Z,4.17
2022-12-06T20:05:53.003Z,4.18
2022-12-06T20:10:54.281Z,4.16
2022-12-06T20:15:55.497Z,4.13
2022-12-06T20:20:56.694Z,4.12
2022-12-06T20:25:57.878Z,4.15
2022-12-06T20:30:59.084Z,4.18
2022-12-06T20:36:00.307Z,4.19
2022-12-06T20:41:01.509Z,4.17
2022-12-06T20:46:06.531Z,4.18
2022-12-06T20:51:09.966Z,4.21
2022-12-06T20:56:11.258Z,4.23
2022-12-06T21:01:12.506Z,4.20
2022-12-06T21:06:13.650Z,4.19
2022-12-06T21:11:22.546Z,4.21
2022-12-06T21:16:24.559Z,4.21
2022-12-06T21:21:25.911Z,4.21
2022-12-06T21:26:27.122Z,4.16
2022-12-06T21:31:28.420Z,4.12
2022-12-06T21:36:29.648Z,4.13
2022-12-06T21:41:30.783Z,4.13
2022-12-06T21:46:32.107Z,4.11
2022-12-06T21:51:33.362Z,4.09
2022-12-06T21:56:35.074Z,4.10
2022-12-06T22:01:36.421Z,4.12
2022-12-06T22:06:37.700Z,4.12
2022-12-06T22:11:39.172Z,4.13
2022-12-06T22:16:40.433Z,4.14
2022-12-06T22:21:41.711Z,4.14
2022-12-06T22:26:42.842Z,4.18
2022-12-06T22:31:44.130Z,4.21
2022-12-06T22:36:45.405Z,4.21
2022-12-06T22:41:46.593Z,4.21
2022-12-06T22:46:47.772Z,4.20
2022-12-06T22:51:48.939Z,4.22
2022-12-06T22:56:50.152Z,4.22
2022-12-06T23:01:51.353Z,4.18
2022-12-06T23:06:52.675Z,4.20
2022-12-06T23:11:53.869Z,4.20
2022-12-06T23:16:55.032Z,4.23
2022-12-06T23:21:56.161Z,4.23
2022-12-06T23:26:58.390Z,4.25
2022-12-06T23:31:59.834Z,4.25
2022-12-06T23:37:01.076Z,4.27
2022-12-06T23:42:02.289Z,4.27
2022-12-06T23:47:03.466Z,4.28
2022-12-06T23:52:04.657Z,4.29
2022-12-06T23:57:05.857Z,4.30
